createdAt,value
2023-03-26T00:01:23.852Z,98720.56
2023-03-26T00:03:54.759Z,98713.03
2023-03-26T00:06:24.248Z,98717.13
2023-03-26T00:08:52.910Z,98721.88
2023-03-26T00:11:22.503Z,98728.28
2023-03-26T00:13:53.854Z,98719.59
2023-03-26T00:16:22.324Z,98711.06
2023-03-26T00:18:51.747Z,98724.25
2023-03-26T00:21:21.966Z,98718.59
2023-03-26T00:23:50.470Z,98726.03
2023-03-26T00:26:19.025Z,98729.75
2023-03-26T00:28:47.380Z,98741.13
2023-03-26T00:31:16.949Z,98740.28
2023-03-26T00:33:45.205Z,98740.09
2023-03-26T00:36:15.451Z,98742.16
2023-03-26T00:38:44.326Z,98735.50
2023-03-26T00:41:17.617Z,98745.41
2023-03-26T00:43:48.569Z,98743.75
2023-03-26T00:46:18.995Z,98747.84
2023-03-26T00:48:48.087Z,98744.97
2023-03-26T00:51:16.915Z,98747.88
2023-03-26T00:53:46.512Z,98751.63
2023-03-26T00:56:15.326Z,98760.13
2023-03-26T00:58:43.665Z,98754.31
2023-03-26T01:01:13.963Z,98758.47
2023-03-26T01:03:56.771Z,98759.94
2023-03-26T01:06:32.827Z,98752.53
2023-03-26T01:09:04.429Z,98761.03
2023-03-26T01:11:35.183Z,98757.59
2023-03-26T01:14:07.280Z,98764.69
2023-03-26T01:16:38.433Z,98764.31
2023-03-26T01:19:13.059Z,98765.41
2023-03-26T01:21:41.598Z,98764.84
2023-03-26T01:24:11.974Z,98773.09
2023-03-26T01:26:45.163Z,98771.88
2023-03-26T01:29:19.779Z,98773.94
2023-03-26T01:31:52.949Z,98779.38
2023-03-26T01:34:24.208Z,98783.34
2023-03-26T01:36:57.512Z,98776.13
2023-03-26T01:39:31.889Z,98780.25
2023-03-26T01:42:03.648Z,98783.28
2023-03-26T01:44:35.772Z,98776.47
2023-03-26T01:47:04.771Z,98782.72
2023-03-26T01:49:33.255Z,98780.22
2023-03-26T01:52:01.562Z,98779.16
2023-03-26T01:54:34.165Z,98776.47
2023-03-26T01:57:07.148Z,98779.38
2023-03-26T01:59:52.968Z,98779.75
2023-03-26T02:02:28.535Z,98775.59
2023-03-26T02:04:59.430Z,98775.97
2023-03-26T02:07:29.305Z,98779.03
2023-03-26T02:10:02.228Z,98780.06
2023-03-26T02:12:31.480Z,98776.81
2023-03-26T02:15:00.984Z,98780.72
2023-03-26T02:17:32.653Z,98782.13
2023-03-26T02:20:06.184Z,98779.53
2023-03-26T02:22:41.044Z,98784.00
2023-03-26T02:25:14.130Z,98779.78
2023-03-26T02:27:43.239Z,98780.13
2023-03-26T02:30:16.296Z,98777.97
2023-03-26T02:32:46.980Z,98794.56
2023-03-26T02:35:15.442Z,98781.41
2023-03-26T02:37:47.102Z,98787.16
2023-03-26T02:40:21.385Z,98794.94
2023-03-26T02:42:50.764Z,98790.41
2023-03-26T02:45:18.962Z,98796.66
2023-03-26T02:48:06.178Z,98807.78
2023-03-26T02:50:50.270Z,98811.50
2023-03-26T02:53:29.987Z,98817.06
2023-03-26T02:56:19.360Z,98822.59
2023-03-26T02:59:06.237Z,98831.38
2023-03-26T03:01:35.120Z,98837.28
2023-03-26T03:04:04.481Z,98839.28
2023-03-26T03:06:38.502Z,98840.13
2023-03-26T03:09:06.904Z,98845.50
2023-03-26T03:11:57.133Z,98844.19
2023-03-26T03:14:25.701Z,98843.38
2023-03-26T03:16:54.462Z,98850.63
2023-03-26T03:19:52.759Z,98851.84
2023-03-26T03:22:21.388Z,98857.56
2023-03-26T03:24:52.058Z,98855.06
2023-03-26T03:27:22.402Z,98862.81
2023-03-26T03:29:59.197Z,98870.56
2023-03-26T03:32:58.394Z,98874.59
2023-03-26T03:35:27.840Z,98882.38
2023-03-26T03:37:59.739Z,98887.13
2023-03-26T03:40:29.812Z,98896.19
2023-03-26T03:42:59.920Z,98888.50
2023-03-26T03:45:37.692Z,98891.69
2023-03-26T03:48:15.373Z,98896.63
2023-03-26T03:50:47.081Z,98914.06
2023-03-26T03:53:31.550Z,98918.78
2023-03-26T03:56:02.159Z,98916.59
2023-03-26T03:58:59.696Z,98923.19
2023-03-26T04:01:35.473Z,98927.22
2023-03-26T04:04:13.814Z,98937.25
2023-03-26T04:06:53.957Z,98942.97
2023-03-26T04:09:23.021Z,98955.72
2023-03-26T04:11:52.162Z,98959.41
2023-03-26T04:14:35.939Z,98954.06
2023-03-26T04:17:15.529Z,98960.75
2023-03-26T04:19:45.715Z,98971.47
2023-03-26T04:22:18.415Z,98973.78
2023-03-26T04:24:55.820Z,98981.81
2023-03-26T04:27:38.526Z,98982.81
2023-03-26T04:30:28.818Z,98994.22
2023-03-26T04:33:06.639Z,99008.94
2023-03-26T04:35:41.882Z,99017.63
2023-03-26T04:38:12.929Z,99013.59
2023-03-26T04:40:47.584Z,99029.34
2023-03-26T04:43:36.699Z,99022.81
2023-03-26T04:46:22.032Z,99044.41
2023-03-26T04:48:57.296Z,99052.13
2023-03-26T04:51:30.437Z,99062.50
2023-03-26T04:54:01.628Z,99062.50
2023-03-26T04:56:39.232Z,99069.53
2023-03-26T04:59:41.621Z,99087.94
2023-03-26T05:02:14.419Z,99082.28
2023-03-26T05:05:02.909Z,99083.94
2023-03-26T05:07:33.415Z,99085.63
2023-03-26T05:10:03.846Z,99098.03
2023-03-26T05:12:55.274Z,99095.50
2023-03-26T05:15:27.764Z,99106.72
2023-03-26T05:18:00.447Z,99114.25
2023-03-26T05:20:33.466Z,99120.28
2023-03-26T05:23:03.042Z,99129.84
2023-03-26T05:25:34.907Z,99135.50
2023-03-26T05:28:05.015Z,99145.22
2023-03-26T05:30:40.990Z,99157.28
2023-03-26T05:33:10.792Z,99160.28
2023-03-26T05:36:00.417Z,99160.63
2023-03-26T05:38:30.208Z,99179.03
2023-03-26T05:40:59.394Z,99183.75
2023-03-26T05:43:27.876Z,99188.44
2023-03-26T05:46:04.405Z,99197.13
2023-03-26T05:48:35.585Z,99207.88
2023-03-26T05:51:03.844Z,99210.88
2023-03-26T05:53:34.168Z,99210.53
2023-03-26T05:56:28.864Z,99214.38
2023-03-26T05:59:15.875Z,99219.22
2023-03-26T06:02:07.353Z,99231.47
2023-03-26T06:04:41.063Z,99239.34
2023-03-26T06:07:28.534Z,99241.75
2023-03-26T06:10:18.346Z,99261.84
2023-03-26T06:12:47.690Z,99273.91
2023-03-26T06:15:16.099Z,99271.56
2023-03-26T06:18:07.306Z,99279.09
2023-03-26T06:20:45.245Z,99289.31
2023-03-26T06:23:30.514Z,99292.50
2023-03-26T06:26:33.800Z,99304.91
2023-03-26T06:29:07.451Z,99299.69
2023-03-26T06:31:46.095Z,99312.09
2023-03-26T06:34:23.804Z,99317.66
2023-03-26T06:36:53.805Z,99320.81
2023-03-26T06:39:23.536Z,99325.00
2023-03-26T06:42:01.194Z,99333.59
2023-03-26T06:45:01.964Z,99343.97
2023-03-26T06:48:02.600Z,99343.34
2023-03-26T06:50:48.080Z,99350.22
2023-03-26T06:53:46.972Z,99350.69
2023-03-26T06:56:38.291Z,99347.81
2023-03-26T06:59:21.853Z,99360.97
2023-03-26T07:02:09.329Z,99373.34
2023-03-26T07:05:00.616Z,99377.56
2023-03-26T07:07:48.585Z,99383.75
2023-03-26T07:10:37.034Z,99395.00
2023-03-26T07:13:11.134Z,99404.41
2023-03-26T07:15:57.956Z,99407.75
2023-03-26T07:18:32.265Z,99409.75
2023-03-26T07:21:02.643Z,99415.78
2023-03-26T07:23:33.502Z,99427.19
2023-03-26T07:26:24.636Z,99432.56
2023-03-26T07:29:09.573Z,99443.47
2023-03-26T07:32:09.698Z,99453.06
2023-03-26T07:35:03.546Z,99468.81
2023-03-26T07:38:06.414Z,99464.78
2023-03-26T07:40:43.632Z,99466.44
2023-03-26T07:43:49.869Z,99473.81
2023-03-26T07:46:41.725Z,99484.06
2023-03-26T07:49:29.601Z,99489.91
2023-03-26T07:52:20.791Z,99507.69
2023-03-26T07:54:49.546Z,99508.66
2023-03-26T07:57:46.632Z,99512.81
2023-03-26T08:00:27.608Z,99515.53
2023-03-26T08:03:24.748Z,99515.84
2023-03-26T08:06:04.409Z,99523.53
2023-03-26T08:08:46.711Z,99521.66
2023-03-26T08:11:55.615Z,99537.78
2023-03-26T08:14:28.783Z,99539.78
2023-03-26T08:17:01.727Z,99545.31
2023-03-26T08:19:37.856Z,99550.88
2023-03-26T08:22:12.968Z,99549.50
2023-03-26T08:24:46.503Z,99549.84
2023-03-26T08:27:21.601Z,99552.09
2023-03-26T08:29:54.904Z,99568.59
2023-03-26T08:32:24.283Z,99561.56
2023-03-26T08:34:53.135Z,99574.34
2023-03-26T08:37:22.967Z,99578.75
2023-03-26T08:39:51.371Z,99575.75
2023-03-26T08:42:24.280Z,99582.16
2023-03-26T08:45:10.571Z,99593.31
2023-03-26T08:48:08.453Z,99596.84
2023-03-26T08:50:42.503Z,99612.19
2023-03-26T08:53:27.100Z,99628.66
2023-03-26T08:56:02.641Z,99630.88
2023-03-26T08:58:52.638Z,99646.16
2023-03-26T09:01:29.240Z,99652.88
2023-03-26T09:04:11.751Z,99651.03
2023-03-26T09:06:48.961Z,99665.34
2023-03-26T09:09:41.082Z,99670.38
2023-03-26T09:12:20.887Z,99678.28
2023-03-26T09:15:08.360Z,99691.03
2023-03-26T09:17:50.091Z,99692.34
2023-03-26T09:20:37.124Z,99696.13
2023-03-26T09:23:36.522Z,99705.50
2023-03-26T09:26:25.441Z,99711.72
2023-03-26T09:29:17.685Z,99725.03
2023-03-26T09:31:58.371Z,99724.75
2023-03-26T09:34:31.805Z,99731.16
2023-03-26T09:37:13.027Z,99737.41
2023-03-26T09:39:48.226Z,99740.59
2023-03-26T09:42:22.029Z,99739.41
2023-03-26T09:45:10.716Z,99744.94
2023-03-26T09:48:01.220Z,99751.31
2023-03-26T09:50:35.915Z,99764.06
2023-03-26T09:53:10.238Z,99765.41
2023-03-26T09:55:57.464Z,99769.75
2023-03-26T09:58:42.874Z,99768.38
2023-03-26T10:01:16.526Z,99777.47
2023-03-26T10:03:53.697Z,99772.78
2023-03-26T10:06:28.257Z,99782.56
2023-03-26T10:09:07.840Z,99796.22
2023-03-26T10:11:51.588Z,99802.50
2023-03-26T10:14:24.328Z,99801.78
2023-03-26T10:16:56.661Z,99811.56
2023-03-26T10:19:37.858Z,99823.69
2023-03-26T10:22:20.565Z,99835.47
2023-03-26T10:25:12.297Z,99839.31
2023-03-26T10:27:45.794Z,99848.22
2023-03-26T10:30:29.337Z,99850.59
2023-03-26T10:33:04.274Z,99853.59
2023-03-26T10:35:41.908Z,99860.16
2023-03-26T10:38:22.050Z,99857.59
2023-03-26T10:40:56.643Z,99860.91
2023-03-26T10:43:51.905Z,99869.41
2023-03-26T10:46:50.921Z,99865.34
2023-03-26T10:49:33.196Z,99884.72
2023-03-26T10:52:03.778Z,99880.13
2023-03-26T10:54:40.805Z,99888.28
2023-03-26T10:57:14.306Z,99890.84
2023-03-26T10:59:42.636Z,99895.22
2023-03-26T11:02:29.451Z,99890.16
2023-03-26T11:05:05.523Z,99897.75
2023-03-26T11:07:39.179Z,99904.06
2023-03-26T11:10:11.534Z,99905.97
2023-03-26T11:12:43.352Z,99898.38
2023-03-26T11:15:20.112Z,99901.25
2023-03-26T11:17:53.833Z,99908.72
2023-03-26T11:20:23.858Z,99915.53
2023-03-26T11:23:00.443Z,99915.34
2023-03-26T11:25:37.058Z,99918.47
2023-03-26T11:28:11.716Z,99920.41
2023-03-26T11:30:46.082Z,99935.22
2023-03-26T11:33:16.958Z,99935.34
2023-03-26T11:35:48.824Z,99943.28
2023-03-26T11:38:20.593Z,99949.03
2023-03-26T11:40:51.925Z,99950.69
2023-03-26T11:43:36.635Z,99957.22
2023-03-26T11:46:05.720Z,99963.75
2023-03-26T11:48:37.146Z,99971.75
2023-03-26T11:51:07.520Z,99983.91
2023-03-26T11:53:38.757Z,99995.63
2023-03-26T11:56:15.168Z,99992.19
2023-03-26T11:58:48.113Z,99996.06
2023-03-26T12:01:17.504Z,99998.00
2023-03-26T12:03:56.870Z,99994.59
2023-03-26T12:06:29.017Z,100007.94
2023-03-26T12:08:58.149Z,100016.59
2023-03-26T12:11:33.217Z,100011.84
2023-03-26T12:14:05.232Z,100024.06
2023-03-26T12:16:33.625Z,100036.38
2023-03-26T12:19:05.620Z,100044.66
2023-03-26T12:21:45.161Z,100049.72
2023-03-26T12:24:26.407Z,100042.09
2023-03-26T12:27:02.145Z,100037.38
2023-03-26T12:29:34.306Z,100039.59
2023-03-26T12:32:06.842Z,100048.00
2023-03-26T12:34:36.507Z,100053.31
2023-03-26T12:37:05.673Z,100063.28
2023-03-26T12:40:06.919Z,100069.38
2023-03-26T12:44:47.760Z,100068.31
2023-03-26T12:45:16.405Z,100072.41
2023-03-26T12:47:59.790Z,100075.09
2023-03-26T12:50:38.445Z,100075.44
2023-03-26T12:53:24.198Z,100069.50
2023-03-26T12:56:00.680Z,100083.56
2023-03-26T12:58:39.750Z,100090.38
2023-03-26T13:01:16.127Z,100098.16
2023-03-26T13:03:52.454Z,100101.44
2023-03-26T13:06:30.020Z,100098.34
2023-03-26T13:09:16.007Z,100104.56
2023-03-26T13:11:49.823Z,100110.66
2023-03-26T13:14:33.304Z,100114.16
2023-03-26T13:17:06.223Z,100116.84
2023-03-26T13:19:39.414Z,100114.25
2023-03-26T13:22:15.375Z,100117.38
2023-03-26T13:24:48.175Z,100121.97
2023-03-26T13:27:23.686Z,100131.28
2023-03-26T13:29:57.376Z,100137.34
2023-03-26T13:32:32.161Z,100139.50
2023-03-26T13:35:10.439Z,100141.16
2023-03-26T13:37:43.650Z,100149.66
2023-03-26T13:40:24.925Z,100156.66
2023-03-26T13:43:00.975Z,100166.69
2023-03-26T13:45:37.219Z,100178.72
2023-03-26T13:48:10.872Z,100178.03
2023-03-26T13:50:42.646Z,100181.41
2023-03-26T13:53:15.653Z,100182.75
2023-03-26T13:55:46.239Z,100186.81
2023-03-26T13:58:18.999Z,100196.13
2023-03-26T14:00:54.583Z,100207.63
2023-03-26T14:03:30.076Z,100199.41
2023-03-26T14:06:00.700Z,100203.81
2023-03-26T14:08:32.874Z,100200.72
2023-03-26T14:11:06.554Z,100213.94
2023-03-26T14:13:37.909Z,100198.94
2023-03-26T14:16:10.878Z,100203.25
2023-03-26T14:18:45.442Z,100204.81
2023-03-26T14:21:30.750Z,100206.75
2023-03-26T14:24:19.796Z,100215.81
2023-03-26T14:26:58.408Z,100228.22
2023-03-26T14:29:31.206Z,100219.16
2023-03-26T14:32:04.989Z,100232.50
2023-03-26T14:34:52.823Z,100229.94
2023-03-26T14:37:38.754Z,100245.44
2023-03-26T14:40:26.127Z,100232.41
2023-03-26T14:42:56.597Z,100233.13
2023-03-26T14:45:35.611Z,100234.78
2023-03-26T14:48:16.495Z,100238.94
2023-03-26T14:50:55.578Z,100239.97
2023-03-26T14:53:29.096Z,100254.81
2023-03-26T14:56:18.460Z,100265.59
2023-03-26T14:59:04.716Z,100263.03
2023-03-26T15:01:49.162Z,100262.53
2023-03-26T15:04:43.720Z,100269.81
2023-03-26T15:07:31.415Z,100273.16
2023-03-26T15:10:14.469Z,100276.16
2023-03-26T15:12:49.843Z,100283.56
2023-03-26T15:15:36.543Z,100287.41
2023-03-26T15:18:27.016Z,100287.38
2023-03-26T15:21:18.610Z,100277.47
2023-03-26T15:24:04.639Z,100289.06
2023-03-26T15:26:53.998Z,100283.91
2023-03-26T15:29:42.568Z,100288.66
2023-03-26T15:32:30.346Z,100290.69
2023-03-26T15:35:13.601Z,100290.66
2023-03-26T15:38:09.168Z,100298.88
2023-03-26T15:40:43.076Z,100304.25
2023-03-26T15:43:12.976Z,100299.69
2023-03-26T15:45:46.231Z,100310.59
2023-03-26T15:48:30.230Z,100305.31
2023-03-26T15:51:02.567Z,100303.16
2023-03-26T15:53:36.739Z,100311.69
2023-03-26T15:56:11.102Z,100314.59
2023-03-26T15:58:46.180Z,100322.25
2023-03-26T16:01:21.637Z,100318.69
2023-03-26T16:03:55.595Z,100312.47
2023-03-26T16:06:31.247Z,100321.78
2023-03-26T16:09:17.719Z,100319.28
2023-03-26T16:11:57.239Z,100331.00
2023-03-26T16:14:39.430Z,100335.59
2023-03-26T16:17:13.152Z,100333.22
2023-03-26T16:19:52.180Z,100344.44
2023-03-26T16:22:42.863Z,100345.84
2023-03-26T16:25:27.988Z,100356.50
2023-03-26T16:28:09.810Z,100364.84
2023-03-26T16:30:38.388Z,100387.22
2023-03-26T16:33:15.597Z,100385.16
2023-03-26T16:36:03.353Z,100398.16
2023-03-26T16:38:50.361Z,100407.25
2023-03-26T16:41:19.469Z,100419.66
2023-03-26T16:43:56.927Z,100436.34
2023-03-26T16:46:33.341Z,100433.50
2023-03-26T16:49:14.784Z,100442.78
2023-03-26T16:51:55.332Z,100442.78
2023-03-26T16:54:27.485Z,100445.81
2023-03-26T16:57:00.467Z,100451.28
2023-03-26T16:59:40.802Z,100451.72
2023-03-26T17:02:16.815Z,100449.72
2023-03-26T17:04:50.423Z,100462.09
2023-03-26T17:07:21.322Z,100458.00
2023-03-26T17:09:56.941Z,100455.78
2023-03-26T17:12:32.535Z,100454.97
2023-03-26T17:15:08.537Z,100460.38
2023-03-26T17:17:50.206Z,100467.44
2023-03-26T17:20:35.480Z,100476.03
2023-03-26T17:23:10.709Z,100481.19
2023-03-26T17:25:47.071Z,100490.34
2023-03-26T17:28:28.698Z,100491.50
2023-03-26T17:31:03.352Z,100499.78
2023-03-26T17:33:37.129Z,100505.88
2023-03-26T17:36:24.280Z,100515.50
2023-03-26T17:38:56.368Z,100517.19
2023-03-26T17:41:44.844Z,100522.81
2023-03-26T17:44:27.784Z,100518.91
2023-03-26T17:46:58.041Z,100517.19
2023-03-26T17:49:29.453Z,100523.81
2023-03-26T17:52:01.474Z,100520.38
2023-03-26T17:54:35.539Z,100519.34
2023-03-26T17:57:05.890Z,100526.44
2023-03-26T17:59:39.198Z,100527.03
2023-03-26T18:02:17.256Z,100534.50
2023-03-26T18:04:49.373Z,100544.75
2023-03-26T18:07:41.942Z,100550.66
2023-03-26T18:10:22.992Z,100551.81
2023-03-26T18:12:59.623Z,100569.16
2023-03-26T18:15:31.370Z,100577.19
2023-03-26T18:18:10.610Z,100569.69
2023-03-26T18:20:39.222Z,100583.03
2023-03-26T18:23:11.126Z,100575.41
2023-03-26T18:25:41.585Z,100589.63
2023-03-26T18:28:15.796Z,100590.53
2023-03-26T18:30:47.368Z,100601.97
2023-03-26T18:33:17.368Z,100610.66
2023-03-26T18:35:47.730Z,100620.72
2023-03-26T18:38:36.027Z,100616.25
2023-03-26T18:41:14.988Z,100622.75
2023-03-26T18:43:44.726Z,100629.34
2023-03-26T18:46:15.289Z,100630.47
2023-03-26T18:48:45.232Z,100632.78
2023-03-26T18:51:16.951Z,100636.09
2023-03-26T18:53:52.955Z,100647.22
2023-03-26T18:56:29.661Z,100653.88
2023-03-26T18:58:59.241Z,100656.97
2023-03-26T19:01:35.484Z,100671.22
2023-03-26T19:04:08.471Z,100676.34
2023-03-26T19:06:44.983Z,100672.41
2023-03-26T19:09:30.805Z,100679.84
2023-03-26T19:12:06.894Z,100684.97
2023-03-26T19:14:38.458Z,100684.16
2023-03-26T19:17:10.823Z,100688.72
2023-03-26T19:19:40.853Z,100695.84
2023-03-26T19:22:13.706Z,100696.44
2023-03-26T19:24:42.307Z,100705.38
2023-03-26T19:27:19.055Z,100714.00
2023-03-26T19:29:51.527Z,100721.66
2023-03-26T19:32:22.044Z,100721.06
2023-03-26T19:34:54.570Z,100734.66
2023-03-26T19:37:24.011Z,100741.69
2023-03-26T19:39:53.597Z,100748.72
2023-03-26T19:42:26.822Z,100756.75
2023-03-26T19:45:20.007Z,100761.13
2023-03-26T19:48:00.179Z,100771.72
2023-03-26T19:50:37.464Z,100770.50
2023-03-26T19:53:16.742Z,100774.34
2023-03-26T19:55:53.941Z,100778.84
2023-03-26T19:58:27.717Z,100785.44
2023-03-26T20:00:57.413Z,100796.56
2023-03-26T20:03:28.320Z,100796.00
2023-03-26T20:05:56.990Z,100800.91
2023-03-26T20:08:27.337Z,100804.00
2023-03-26T20:10:56.695Z,100810.59
2023-03-26T20:13:26.633Z,100812.81
2023-03-26T20:16:05.383Z,100809.69
2023-03-26T20:18:34.928Z,100814.59
2023-03-26T20:21:03.223Z,100816.72
2023-03-26T20:23:31.523Z,100814.38
2023-03-26T20:26:00.109Z,100815.25
2023-03-26T20:30:59.004Z,100824.53
2023-03-26T20:33:28.494Z,100833.56
2023-03-26T20:35:58.470Z,100827.34
2023-03-26T20:38:39.048Z,100829.56
2023-03-26T20:41:08.070Z,100836.91
2023-03-26T20:43:37.598Z,100838.84
2023-03-26T20:46:05.888Z,100837.16
2023-03-26T20:48:34.388Z,100842.75
2023-03-26T20:51:03.449Z,100844.72
2023-03-26T20:53:32.097Z,100860.97
2023-03-26T20:56:00.194Z,100866.44
2023-03-26T20:58:30.830Z,100856.81
2023-03-26T21:01:03.136Z,100861.00
2023-03-26T21:03:31.396Z,100867.59
2023-03-26T21:06:00.898Z,100868.09
2023-03-26T21:08:35.510Z,100869.69
2023-03-26T21:11:04.939Z,100861.03
2023-03-26T21:13:35.336Z,100867.50
2023-03-26T21:16:05.977Z,100871.41
2023-03-26T21:18:34.348Z,100882.13
2023-03-26T21:21:18.005Z,100882.25
2023-03-26T21:23:59.286Z,100891.16
2023-03-26T21:26:31.499Z,100891.28
2023-03-26T21:29:03.864Z,100898.72
2023-03-26T21:31:38.140Z,100907.72
2023-03-26T21:34:09.104Z,100908.94
2023-03-26T21:36:44.573Z,100918.34
2023-03-26T21:39:18.720Z,100927.59
2023-03-26T21:42:04.845Z,100919.31
2023-03-26T21:44:37.749Z,100915.53
2023-03-26T21:47:10.567Z,100924.78
2023-03-26T21:49:38.993Z,100926.94
2023-03-26T21:52:07.836Z,100936.94
2023-03-26T21:54:37.108Z,100935.22
2023-03-26T21:57:15.223Z,100943.91
2023-03-26T21:59:47.524Z,100938.41
2023-03-26T22:02:22.643Z,100939.38
2023-03-26T22:04:53.710Z,100946.34
2023-03-26T22:07:24.382Z,100941.81
2023-03-26T22:09:52.860Z,100938.06
2023-03-26T22:12:25.668Z,100944.88
2023-03-26T22:14:55.195Z,100942.91
2023-03-26T22:17:24.887Z,100950.72
2023-03-26T22:19:56.238Z,100951.59
2023-03-26T22:22:26.844Z,100954.50
2023-03-26T22:24:55.381Z,100956.69
2023-03-26T22:27:24.112Z,100963.59
2023-03-26T22:29:53.682Z,100960.78
2023-03-26T22:32:22.800Z,100962.22
2023-03-26T22:34:54.330Z,100957.81
2023-03-26T22:37:23.996Z,100961.94
2023-03-26T22:39:52.228Z,100966.03
2023-03-26T22:42:21.573Z,100968.66
2023-03-26T22:44:49.663Z,100973.97
2023-03-26T22:47:21.889Z,100976.59
2023-03-26T22:49:50.365Z,100982.84
2023-03-26T22:52:20.168Z,100978.75
2023-03-26T22:54:48.265Z,100996.53
2023-03-26T22:57:16.595Z,100990.13
2023-03-26T22:59:45.149Z,100998.06
2023-03-26T23:02:13.781Z,100989.97
2023-03-26T23:04:42.820Z,101003.22
2023-03-26T23:07:11.242Z,101008.47
2023-03-26T23:09:40.826Z,101013.25
2023-03-26T23:12:09.215Z,101006.84
2023-03-26T23:14:38.091Z,101016.69
2023-03-26T23:17:06.272Z,101030.31
2023-03-26T23:19:35.212Z,101029.03
2023-03-26T23:22:03.328Z,101035.13
2023-03-26T23:24:31.901Z,101043.16
2023-03-26T23:27:02.066Z,101053.63
2023-03-26T23:29:32.132Z,101057.78
2023-03-26T23:32:00.745Z,101066.22
2023-03-26T23:34:28.861Z,101072.00
2023-03-26T23:36:58.172Z,101075.00
2023-03-26T23:39:26.923Z,101078.13
2023-03-26T23:41:55.330Z,101080.69
2023-03-26T23:44:24.933Z,101080.03
2023-03-26T23:46:58.074Z,101087.63
2023-03-26T23:49:26.834Z,101087.00
2023-03-26T23:51:55.265Z,101086.56
2023-03-26T23:54:25.696Z,101089.44
2023-03-26T23:56:55.046Z,101091.59
2023-03-26T23:59:25.102Z,101090.19
